sensor_id;sensor_type;location;lat;lon;timestamp;P1;durP1;ratioP1;P2;durP2;ratioP2
60582;SDS011;46415;47.536;19.066;2022-09-03T00:00:13;5.22;;;2.30;;
60582;SDS011;46415;47.536;19.066;2022-09-03T00:06:34;2.55;;;2.35;;
60582;SDS011;46415;47.536;19.066;2022-09-03T00:09:54;2.62;;;2.42;;
60582;SDS011;46415;47.536;19.066;2022-09-03T00:13:00;4.28;;;2.83;;
60582;SDS011;46415;47.536;19.066;2022-09-03T00:16:07;2.10;;;1.90;;
60582;SDS011;46415;47.536;19.066;2022-09-03T00:19:15;2.43;;;2.23;;
60582;SDS011;46415;47.536;19.066;2022-09-03T00:22:28;2.35;;;2.15;;
60582;SDS011;46415;47.536;19.066;2022-09-03T00:25:46;3.37;;;2.35;;
60582;SDS011;46415;47.536;19.066;2022-09-03T00:29:14;3.15;;;2.85;;
60582;SDS011;46415;47.536;19.066;2022-09-03T00:32:20;3.05;;;2.25;;
60582;SDS011;46415;47.536;19.066;2022-09-03T00:35:31;2.85;;;2.62;;
60582;SDS011;46415;47.536;19.066;2022-09-03T00:38:56;2.40;;;2.20;;
60582;SDS011;46415;47.536;19.066;2022-09-03T00:48:22;1.75;;;1.65;;
60582;SDS011;46415;47.536;19.066;2022-09-03T00:51:34;2.47;;;2.28;;
60582;SDS011;46415;47.536;19.066;2022-09-03T01:01:20;3.03;;;2.28;;
60582;SDS011;46415;47.536;19.066;2022-09-03T01:07:53;9.50;;;2.42;;
60582;SDS011;46415;47.536;19.066;2022-09-03T01:28:16;1.92;;;1.67;;
60582;SDS011;46415;47.536;19.066;2022-09-03T01:35:01;3.53;;;2.55;;
60582;SDS011;46415;47.536;19.066;2022-09-03T01:41:18;2.40;;;2.05;;
60582;SDS011;46415;47.536;19.066;2022-09-03T01:44:46;3.50;;;2.10;;
60582;SDS011;46415;47.536;19.066;2022-09-03T01:51:26;2.08;;;1.98;;
60582;SDS011;46415;47.536;19.066;2022-09-03T02:01:27;2.17;;;1.87;;
60582;SDS011;46415;47.536;19.066;2022-09-03T02:04:34;3.17;;;2.25;;
60582;SDS011;46415;47.536;19.066;2022-09-03T02:07:39;3.12;;;2.83;;
60582;SDS011;46415;47.536;19.066;2022-09-03T02:10:50;1.98;;;1.87;;
60582;SDS011;46415;47.536;19.066;2022-09-03T02:13:57;4.05;;;3.20;;
60582;SDS011;46415;47.536;19.066;2022-09-03T02:17:02;2.00;;;1.80;;
60582;SDS011;46415;47.536;19.066;2022-09-03T02:20:08;2.75;;;1.77;;
60582;SDS011;46415;47.536;19.066;2022-09-03T02:23:13;4.22;;;2.45;;
60582;SDS011;46415;47.536;19.066;2022-09-03T02:26:20;2.45;;;2.25;;
60582;SDS011;46415;47.536;19.066;2022-09-03T02:29:25;3.72;;;2.05;;
60582;SDS011;46415;47.536;19.066;2022-09-03T02:32:29;2.05;;;1.83;;
60582;SDS011;46415;47.536;19.066;2022-09-03T02:35:32;3.58;;;3.28;;
60582;SDS011;46415;47.536;19.066;2022-09-03T02:38:35;2.42;;;2.22;;
60582;SDS011;46415;47.536;19.066;2022-09-03T02:41:38;1.73;;;1.62;;
60582;SDS011;46415;47.536;19.066;2022-09-03T02:44:43;2.60;;;1.80;;
60582;SDS011;46415;47.536;19.066;2022-09-03T02:47:52;2.25;;;1.95;;
60582;SDS011;46415;47.536;19.066;2022-09-03T02:51:00;1.90;;;1.80;;
60582;SDS011;46415;47.536;19.066;2022-09-03T02:54:15;2.67;;;2.42;;
60582;SDS011;46415;47.536;19.066;2022-09-03T02:57:22;2.67;;;2.37;;
60582;SDS011;46415;47.536;19.066;2022-09-03T03:00:28;2.15;;;1.73;;
60582;SDS011;46415;47.536;19.066;2022-09-03T03:03:31;2.30;;;2.10;;
60582;SDS011;46415;47.536;19.066;2022-09-03T03:06:34;3.55;;;2.90;;
60582;SDS011;46415;47.536;19.066;2022-09-03T03:09:37;2.05;;;1.95;;
60582;SDS011;46415;47.536;19.066;2022-09-03T03:12:39;2.70;;;2.50;;
60582;SDS011;46415;47.536;19.066;2022-09-03T03:15:42;2.70;;;2.50;;
60582;SDS011;46415;47.536;19.066;2022-09-03T03:18:45;2.08;;;1.92;;
60582;SDS011;46415;47.536;19.066;2022-09-03T03:21:48;2.58;;;2.37;;
60582;SDS011;46415;47.536;19.066;2022-09-03T03:24:51;5.28;;;1.87;;
60582;SDS011;46415;47.536;19.066;2022-09-03T03:27:54;2.40;;;1.73;;
60582;SDS011;46415;47.536;19.066;2022-09-03T03:31:05;6.65;;;2.33;;
60582;SDS011;46415;47.536;19.066;2022-09-03T03:34:09;2.55;;;2.35;;
60582;SDS011;46415;47.536;19.066;2022-09-03T03:37:12;2.00;;;1.87;;
60582;SDS011;46415;47.536;19.066;2022-09-03T03:40:15;2.17;;;1.98;;
60582;SDS011;46415;47.536;19.066;2022-09-03T03:43:18;1.92;;;1.73;;
60582;SDS011;46415;47.536;19.066;2022-09-03T03:46:22;2.40;;;1.80;;
60582;SDS011;46415;47.536;19.066;2022-09-03T03:49:25;2.10;;;1.90;;
60582;SDS011;46415;47.536;19.066;2022-09-03T03:52:28;1.52;;;1.42;;
60582;SDS011;46415;47.536;19.066;2022-09-03T03:55:30;1.87;;;1.70;;
60582;SDS011;46415;47.536;19.066;2022-09-03T03:58:36;3.62;;;1.95;;
60582;SDS011;46415;47.536;19.066;2022-09-03T04:01:44;2.35;;;2.15;;
60582;SDS011;46415;47.536;19.066;2022-09-03T04:04:47;2.47;;;2.28;;
60582;SDS011;46415;47.536;19.066;2022-09-03T04:07:49;2.15;;;2.03;;
60582;SDS011;46415;47.536;19.066;2022-09-03T04:10:52;3.83;;;2.35;;
60582;SDS011;46415;47.536;19.066;2022-09-03T04:13:55;2.55;;;2.35;;
60582;SDS011;46415;47.536;19.066;2022-09-03T04:16:57;2.70;;;2.50;;
60582;SDS011;46415;47.536;19.066;2022-09-03T04:20:00;2.95;;;2.70;;
60582;SDS011;46415;47.536;19.066;2022-09-03T04:23:03;4.20;;;2.95;;
60582;SDS011;46415;47.536;19.066;2022-09-03T04:26:07;4.25;;;2.25;;
60582;SDS011;46415;47.536;19.066;2022-09-03T04:29:12;2.10;;;2.00;;
60582;SDS011;46415;47.536;19.066;2022-09-03T04:32:14;2.37;;;2.10;;
60582;SDS011;46415;47.536;19.066;2022-09-03T04:35:36;3.58;;;2.20;;
60582;SDS011;46415;47.536;19.066;2022-09-03T04:38:40;2.30;;;2.10;;
60582;SDS011;46415;47.536;19.066;2022-09-03T04:41:44;9.80;;;1.92;;
60582;SDS011;46415;47.536;19.066;2022-09-03T04:44:47;2.70;;;2.50;;
60582;SDS011;46415;47.536;19.066;2022-09-03T04:47:59;2.28;;;2.08;;
60582;SDS011;46415;47.536;19.066;2022-09-03T04:51:11;1.95;;;1.85;;
60582;SDS011;46415;47.536;19.066;2022-09-03T04:54:16;2.42;;;2.22;;
60582;SDS011;46415;47.536;19.066;2022-09-03T04:57:18;2.90;;;2.15;;
60582;SDS011;46415;47.536;19.066;2022-09-03T05:00:22;3.15;;;2.90;;
60582;SDS011;46415;47.536;19.066;2022-09-03T05:03:24;3.00;;;2.80;;
60582;SDS011;46415;47.536;19.066;2022-09-03T05:06:27;5.78;;;2.47;;
60582;SDS011;46415;47.536;19.066;2022-09-03T05:09:32;2.15;;;1.98;;
60582;SDS011;46415;47.536;19.066;2022-09-03T05:12:36;5.37;;;2.90;;
60582;SDS011;46415;47.536;19.066;2022-09-03T05:15:38;3.35;;;2.20;;
60582;SDS011;46415;47.536;19.066;2022-09-03T05:18:44;3.08;;;2.37;;
60582;SDS011;46415;47.536;19.066;2022-09-03T05:21:48;3.00;;;2.62;;
60582;SDS011;46415;47.536;19.066;2022-09-03T05:24:51;3.22;;;2.92;;
60582;SDS011;46415;47.536;19.066;2022-09-03T05:27:54;4.22;;;3.37;;
60582;SDS011;46415;47.536;19.066;2022-09-03T05:31:00;4.05;;;2.55;;
60582;SDS011;46415;47.536;19.066;2022-09-03T05:34:08;2.95;;;2.75;;
60582;SDS011;46415;47.536;19.066;2022-09-03T05:37:20;3.90;;;3.50;;
60582;SDS011;46415;47.536;19.066;2022-09-03T05:40:24;3.50;;;3.20;;
60582;SDS011;46415;47.536;19.066;2022-09-03T05:43:27;3.80;;;3.50;;
60582;SDS011;46415;47.536;19.066;2022-09-03T05:46:31;4.07;;;3.67;;
60582;SDS011;46415;47.536;19.066;2022-09-03T05:49:35;2.80;;;2.55;;
60582;SDS011;46415;47.536;19.066;2022-09-03T05:52:38;3.78;;;3.40;;
60582;SDS011;46415;47.536;19.066;2022-09-03T05:55:41;3.08;;;2.80;;
60582;SDS011;46415;47.536;19.066;2022-09-03T05:58:47;3.75;;;3.45;;
60582;SDS011;46415;47.536;19.066;2022-09-03T06:01:52;3.62;;;3.33;;
60582;SDS011;46415;47.536;19.066;2022-09-03T06:05:01;3.17;;;2.87;;
60582;SDS011;46415;47.536;19.066;2022-09-03T06:08:04;4.03;;;3.70;;
60582;SDS011;46415;47.536;19.066;2022-09-03T06:11:09;4.15;;;3.75;;
60582;SDS011;46415;47.536;19.066;2022-09-03T06:14:12;4.47;;;3.90;;
60582;SDS011;46415;47.536;19.066;2022-09-03T06:17:16;4.55;;;3.97;;
60582;SDS011;46415;47.536;19.066;2022-09-03T06:20:18;3.85;;;3.55;;
60582;SDS011;46415;47.536;19.066;2022-09-03T06:23:21;4.25;;;3.80;;
60582;SDS011;46415;47.536;19.066;2022-09-03T06:26:24;4.22;;;3.42;;
60582;SDS011;46415;47.536;19.066;2022-09-03T06:29:29;4.35;;;3.80;;
60582;SDS011;46415;47.536;19.066;2022-09-03T06:32:32;4.20;;;3.60;;
60582;SDS011;46415;47.536;19.066;2022-09-03T06:35:35;4.12;;;3.72;;
60582;SDS011;46415;47.536;19.066;2022-09-03T06:38:44;3.80;;;3.42;;
60582;SDS011;46415;47.536;19.066;2022-09-03T06:41:48;4.30;;;3.40;;
60582;SDS011;46415;47.536;19.066;2022-09-03T06:44:58;4.37;;;3.78;;
60582;SDS011;46415;47.536;19.066;2022-09-03T06:48:01;5.20;;;3.83;;
60582;SDS011;46415;47.536;19.066;2022-09-03T06:51:11;5.40;;;3.83;;
60582;SDS011;46415;47.536;19.066;2022-09-03T06:54:16;4.80;;;4.32;;
60582;SDS011;46415;47.536;19.066;2022-09-03T06:57:18;5.97;;;4.20;;
60582;SDS011;46415;47.536;19.066;2022-09-03T07:00:21;5.15;;;4.55;;
60582;SDS011;46415;47.536;19.066;2022-09-03T07:03:24;4.57;;;3.95;;
60582;SDS011;46415;47.536;19.066;2022-09-03T07:06:28;5.32;;;4.18;;
60582;SDS011;46415;47.536;19.066;2022-09-03T07:09:33;4.60;;;3.85;;
60582;SDS011;46415;47.536;19.066;2022-09-03T07:12:39;5.15;;;4.20;;
60582;SDS011;46415;47.536;19.066;2022-09-03T07:15:42;4.30;;;3.50;;
60582;SDS011;46415;47.536;19.066;2022-09-03T07:18:45;4.30;;;3.85;;
60582;SDS011;46415;47.536;19.066;2022-09-03T07:21:48;4.80;;;3.97;;
60582;SDS011;46415;47.536;19.066;2022-09-03T07:24:52;5.30;;;3.60;;
60582;SDS011;46415;47.536;19.066;2022-09-03T07:27:54;3.87;;;3.53;;
60582;SDS011;46415;47.536;19.066;2022-09-03T07:31:01;5.68;;;3.67;;
60582;SDS011;46415;47.536;19.066;2022-09-03T07:34:11;5.07;;;3.55;;
60582;SDS011;46415;47.536;19.066;2022-09-03T07:37:15;3.47;;;3.17;;
60582;SDS011;46415;47.536;19.066;2022-09-03T07:40:19;4.75;;;3.10;;
60582;SDS011;46415;47.536;19.066;2022-09-03T07:43:22;6.20;;;3.60;;
60582;SDS011;46415;47.536;19.066;2022-09-03T07:46:25;3.87;;;3.00;;
60582;SDS011;46415;47.536;19.066;2022-09-03T07:49:29;3.30;;;2.72;;
60582;SDS011;46415;47.536;19.066;2022-09-03T07:52:31;3.20;;;2.80;;
60582;SDS011;46415;47.536;19.066;2022-09-03T07:55:34;3.37;;;2.90;;
60582;SDS011;46415;47.536;19.066;2022-09-03T07:58:38;3.60;;;2.92;;
60582;SDS011;46415;47.536;19.066;2022-09-03T08:01:42;3.53;;;2.67;;
60582;SDS011;46415;47.536;19.066;2022-09-03T08:04:45;3.00;;;2.70;;
60582;SDS011;46415;47.536;19.066;2022-09-03T08:07:48;3.15;;;2.85;;
60582;SDS011;46415;47.536;19.066;2022-09-03T08:10:50;2.90;;;2.60;;
60582;SDS011;46415;47.536;19.066;2022-09-03T08:13:56;2.45;;;2.20;;
60582;SDS011;46415;47.536;19.066;2022-09-03T08:17:03;3.20;;;2.78;;
60582;SDS011;46415;47.536;19.066;2022-09-03T08:20:05;5.15;;;2.47;;
60582;SDS011;46415;47.536;19.066;2022-09-03T08:23:09;3.70;;;2.67;;
60582;SDS011;46415;47.536;19.066;2022-09-03T08:26:13;2.87;;;2.55;;
60582;SDS011;46415;47.536;19.066;2022-09-03T08:29:17;6.30;;;3.35;;
60582;SDS011;46415;47.536;19.066;2022-09-03T08:32:19;3.83;;;3.05;;
60582;SDS011;46415;47.536;19.066;2022-09-03T08:35:22;3.62;;;2.80;;
60582;SDS011;46415;47.536;19.066;2022-09-03T08:38:25;3.22;;;3.03;;
60582;SDS011;46415;47.536;19.066;2022-09-03T08:44:59;3.37;;;2.92;;
60582;SDS011;46415;47.536;19.066;2022-09-03T08:48:22;3.40;;;3.10;;
60582;SDS011;46415;47.536;19.066;2022-09-03T08:51:27;3.60;;;2.87;;
60582;SDS011;46415;47.536;19.066;2022-09-03T08:54:30;2.97;;;2.65;;
60582;SDS011;46415;47.536;19.066;2022-09-03T08:57:35;3.28;;;2.97;;
60582;SDS011;46415;47.536;19.066;2022-09-03T09:04:19;3.45;;;3.15;;
60582;SDS011;46415;47.536;19.066;2022-09-03T09:07:40;3.30;;;2.87;;
60582;SDS011;46415;47.536;19.066;2022-09-03T09:10:58;3.67;;;3.10;;
60582;SDS011;46415;47.536;19.066;2022-09-03T09:21:08;3.28;;;2.97;;
60582;SDS011;46415;47.536;19.066;2022-09-03T09:24:23;3.78;;;2.95;;
60582;SDS011;46415;47.536;19.066;2022-09-03T09:27:28;5.47;;;2.80;;
60582;SDS011;46415;47.536;19.066;2022-09-03T09:30:31;4.57;;;2.95;;
60582;SDS011;46415;47.536;19.066;2022-09-03T09:33:34;3.80;;;3.30;;
60582;SDS011;46415;47.536;19.066;2022-09-03T09:36:47;3.85;;;2.83;;
60582;SDS011;46415;47.536;19.066;2022-09-03T09:39:54;3.65;;;2.47;;
60582;SDS011;46415;47.536;19.066;2022-09-03T09:43:03;3.12;;;2.70;;
60582;SDS011;46415;47.536;19.066;2022-09-03T09:46:15;2.60;;;2.40;;
60582;SDS011;46415;47.536;19.066;2022-09-03T09:49:36;2.92;;;2.50;;
60582;SDS011;46415;47.536;19.066;2022-09-03T09:52:44;3.67;;;2.42;;
60582;SDS011;46415;47.536;19.066;2022-09-03T09:55:55;3.00;;;2.30;;
60582;SDS011;46415;47.536;19.066;2022-09-03T10:02:09;2.70;;;2.40;;
60582;SDS011;46415;47.536;19.066;2022-09-03T10:05:24;3.10;;;2.30;;
60582;SDS011;46415;47.536;19.066;2022-09-03T10:08:29;3.40;;;2.40;;
60582;SDS011;46415;47.536;19.066;2022-09-03T10:11:33;3.42;;;2.40;;
60582;SDS011;46415;47.536;19.066;2022-09-03T10:14:42;2.97;;;2.50;;
60582;SDS011;46415;47.536;19.066;2022-09-03T10:21:11;2.78;;;2.30;;
60582;SDS011;46415;47.536;19.066;2022-09-03T10:24:40;2.78;;;2.30;;
60582;SDS011;46415;47.536;19.066;2022-09-03T10:27:52;2.55;;;2.30;;
60582;SDS011;46415;47.536;19.066;2022-09-03T10:31:05;2.58;;;2.37;;
60582;SDS011;46415;47.536;19.066;2022-09-03T10:37:50;2.40;;;2.15;;
60582;SDS011;46415;47.536;19.066;2022-09-03T10:41:16;2.50;;;2.30;;
60582;SDS011;46415;47.536;19.066;2022-09-03T10:44:39;2.30;;;2.10;;
60582;SDS011;46415;47.536;19.066;2022-09-03T10:51:14;2.30;;;2.12;;
60582;SDS011;46415;47.536;19.066;2022-09-03T10:57:37;2.40;;;2.17;;
60582;SDS011;46415;47.536;19.066;2022-09-03T11:00:55;3.30;;;2.60;;
60582;SDS011;46415;47.536;19.066;2022-09-03T11:04:15;2.22;;;2.10;;
60582;SDS011;46415;47.536;19.066;2022-09-03T11:07:31;1.90;;;1.80;;
60582;SDS011;46415;47.536;19.066;2022-09-03T11:10:41;2.10;;;1.77;;
60582;SDS011;46415;47.536;19.066;2022-09-03T11:13:49;3.85;;;2.25;;
60582;SDS011;46415;47.536;19.066;2022-09-03T11:20:42;2.17;;;1.98;;
60582;SDS011;46415;47.536;19.066;2022-09-03T11:23:46;2.55;;;2.35;;
60582;SDS011;46415;47.536;19.066;2022-09-03T11:27:00;3.17;;;2.70;;
60582;SDS011;46415;47.536;19.066;2022-09-03T11:30:12;2.58;;;2.10;;
60582;SDS011;46415;47.536;19.066;2022-09-03T11:33:18;2.60;;;2.05;;
60582;SDS011;46415;47.536;19.066;2022-09-03T11:36:30;2.70;;;2.05;;
60582;SDS011;46415;47.536;19.066;2022-09-03T11:39:35;2.00;;;1.90;;
60582;SDS011;46415;47.536;19.066;2022-09-03T11:42:41;2.17;;;1.98;;
60582;SDS011;46415;47.536;19.066;2022-09-03T11:45:46;2.15;;;2.05;;
60582;SDS011;46415;47.536;19.066;2022-09-03T11:48:50;1.80;;;1.70;;
60582;SDS011;46415;47.536;19.066;2022-09-03T11:51:57;2.50;;;2.30;;
60582;SDS011;46415;47.536;19.066;2022-09-03T11:55:05;2.37;;;2.03;;
60582;SDS011;46415;47.536;19.066;2022-09-03T11:58:33;4.65;;;2.45;;
60582;SDS011;46415;47.536;19.066;2022-09-03T12:01:36;2.22;;;2.00;;
60582;SDS011;46415;47.536;19.066;2022-09-03T12:04:44;2.28;;;2.03;;
60582;SDS011;46415;47.536;19.066;2022-09-03T12:21:20;2.22;;;2.00;;
60582;SDS011;46415;47.536;19.066;2022-09-03T12:24:25;2.10;;;1.90;;
60582;SDS011;46415;47.536;19.066;2022-09-03T12:27:39;1.77;;;1.67;;
60582;SDS011;46415;47.536;19.066;2022-09-03T12:30:48;2.10;;;1.90;;
60582;SDS011;46415;47.536;19.066;2022-09-03T12:33:58;1.83;;;1.73;;
60582;SDS011;46415;47.536;19.066;2022-09-03T12:37:19;1.98;;;1.80;;
60582;SDS011;46415;47.536;19.066;2022-09-03T12:40:45;1.77;;;1.60;;
60582;SDS011;46415;47.536;19.066;2022-09-03T12:44:09;2.15;;;2.05;;
60582;SDS011;46415;47.536;19.066;2022-09-03T12:47:27;2.30;;;2.10;;
60582;SDS011;46415;47.536;19.066;2022-09-03T12:50:39;1.92;;;1.70;;
60582;SDS011;46415;47.536;19.066;2022-09-03T12:53:49;1.90;;;1.80;;
60582;SDS011;46415;47.536;19.066;2022-09-03T12:56:55;2.62;;;1.90;;
60582;SDS011;46415;47.536;19.066;2022-09-03T13:00:05;1.98;;;1.87;;
60582;SDS011;46415;47.536;19.066;2022-09-03T13:06:33;2.22;;;2.03;;
60582;SDS011;46415;47.536;19.066;2022-09-03T13:09:51;1.85;;;1.75;;
60582;SDS011;46415;47.536;19.066;2022-09-03T13:13:26;1.80;;;1.70;;
60582;SDS011;46415;47.536;19.066;2022-09-03T13:26:16;2.20;;;2.03;;
60582;SDS011;46415;47.536;19.066;2022-09-03T13:33:21;2.00;;;1.83;;
60582;SDS011;46415;47.536;19.066;2022-09-03T13:36:35;1.75;;;1.60;;
60582;SDS011;46415;47.536;19.066;2022-09-03T13:40:11;1.60;;;1.50;;
60582;SDS011;46415;47.536;19.066;2022-09-03T13:46:51;1.90;;;1.80;;
60582;SDS011;46415;47.536;19.066;2022-09-03T13:50:05;1.85;;;1.75;;
60582;SDS011;46415;47.536;19.066;2022-09-03T13:53:41;1.70;;;1.60;;
60582;SDS011;46415;47.536;19.066;2022-09-03T13:57:03;1.70;;;1.58;;
60582;SDS011;46415;47.536;19.066;2022-09-03T14:00:10;1.70;;;1.60;;
60582;SDS011;46415;47.536;19.066;2022-09-03T14:07:05;1.58;;;1.48;;
60582;SDS011;46415;47.536;19.066;2022-09-03T14:20:05;1.40;;;1.30;;
60582;SDS011;46415;47.536;19.066;2022-09-03T14:23:23;1.70;;;1.60;;
60582;SDS011;46415;47.536;19.066;2022-09-03T14:26:47;1.65;;;1.30;;
60582;SDS011;46415;47.536;19.066;2022-09-03T14:29:57;2.05;;;1.60;;
60582;SDS011;46415;47.536;19.066;2022-09-03T14:36:36;1.58;;;1.48;;
60582;SDS011;46415;47.536;19.066;2022-09-03T14:47:02;1.62;;;1.52;;
60582;SDS011;46415;47.536;19.066;2022-09-03T14:50:27;1.83;;;1.40;;
60582;SDS011;46415;47.536;19.066;2022-09-03T14:54:08;1.40;;;1.30;;
60582;SDS011;46415;47.536;19.066;2022-09-03T15:07:40;1.48;;;1.37;;
60582;SDS011;46415;47.536;19.066;2022-09-03T15:24:23;1.77;;;1.30;;
60582;SDS011;46415;47.536;19.066;2022-09-03T15:31:23;1.45;;;1.35;;
60582;SDS011;46415;47.536;19.066;2022-09-03T15:34:46;1.40;;;1.30;;
60582;SDS011;46415;47.536;19.066;2022-09-03T15:44:43;1.73;;;1.27;;
60582;SDS011;46415;47.536;19.066;2022-09-03T15:47:53;1.55;;;1.45;;
60582;SDS011;46415;47.536;19.066;2022-09-03T15:51:05;3.42;;;1.50;;
60582;SDS011;46415;47.536;19.066;2022-09-03T16:01:26;1.50;;;1.40;;
60582;SDS011;46415;47.536;19.066;2022-09-03T16:08:12;1.52;;;1.42;;
60582;SDS011;46415;47.536;19.066;2022-09-03T16:15:27;1.60;;;1.50;;
60582;SDS011;46415;47.536;19.066;2022-09-03T16:18:37;1.90;;;1.80;;
60582;SDS011;46415;47.536;19.066;2022-09-03T16:21:57;1.77;;;1.67;;
60582;SDS011;46415;47.536;19.066;2022-09-03T16:25:09;1.92;;;1.77;;
60582;SDS011;46415;47.536;19.066;2022-09-03T16:28:52;2.10;;;1.90;;
60582;SDS011;46415;47.536;19.066;2022-09-03T16:41:56;2.17;;;1.98;;
60582;SDS011;46415;47.536;19.066;2022-09-03T16:49:04;1.90;;;1.80;;
60582;SDS011;46415;47.536;19.066;2022-09-03T16:52:18;1.80;;;1.70;;
60582;SDS011;46415;47.536;19.066;2022-09-03T16:55:51;1.95;;;1.75;;
60582;SDS011;46415;47.536;19.066;2022-09-03T17:16:13;2.15;;;2.05;;
60582;SDS011;46415;47.536;19.066;2022-09-03T17:26:20;2.92;;;2.30;;
60582;SDS011;46415;47.536;19.066;2022-09-03T17:36:53;3.03;;;2.60;;
60582;SDS011;46415;47.536;19.066;2022-09-03T17:40:21;3.53;;;2.30;;
60582;SDS011;46415;47.536;19.066;2022-09-03T17:50:17;2.90;;;2.60;;
60582;SDS011;46415;47.536;19.066;2022-09-03T17:53:33;2.70;;;2.50;;
60582;SDS011;46415;47.536;19.066;2022-09-03T17:56:47;2.55;;;2.35;;
60582;SDS011;46415;47.536;19.066;2022-09-03T17:59:52;2.33;;;2.15;;
60582;SDS011;46415;47.536;19.066;2022-09-03T18:02:59;2.70;;;2.30;;
60582;SDS011;46415;47.536;19.066;2022-09-03T18:09:36;3.80;;;2.67;;
60582;SDS011;46415;47.536;19.066;2022-09-03T18:13:02;2.58;;;2.37;;
60582;SDS011;46415;47.536;19.066;2022-09-03T18:16:17;3.72;;;2.75;;
60582;SDS011;46415;47.536;19.066;2022-09-03T18:19:38;2.90;;;2.58;;
60582;SDS011;46415;47.536;19.066;2022-09-03T18:23:10;3.17;;;2.87;;
60582;SDS011;46415;47.536;19.066;2022-09-03T18:26:36;3.42;;;2.85;;
60582;SDS011;46415;47.536;19.066;2022-09-03T18:30:05;5.00;;;2.78;;
60582;SDS011;46415;47.536;19.066;2022-09-03T18:33:29;3.17;;;2.85;;
60582;SDS011;46415;47.536;19.066;2022-09-03T18:36:50;3.72;;;2.70;;
60582;SDS011;46415;47.536;19.066;2022-09-03T18:40:20;4.32;;;2.90;;
60582;SDS011;46415;47.536;19.066;2022-09-03T18:55:27;3.83;;;3.17;;
60582;SDS011;46415;47.536;19.066;2022-09-03T19:02:46;2.95;;;2.75;;
60582;SDS011;46415;47.536;19.066;2022-09-03T19:09:47;3.53;;;2.53;;
60582;SDS011;46415;47.536;19.066;2022-09-03T19:13:23;3.97;;;3.15;;
60582;SDS011;46415;47.536;19.066;2022-09-03T19:16:59;3.40;;;3.00;;
60582;SDS011;46415;47.536;19.066;2022-09-03T19:20:29;3.28;;;2.97;;
60582;SDS011;46415;47.536;19.066;2022-09-03T19:23:52;3.50;;;2.97;;
60582;SDS011;46415;47.536;19.066;2022-09-03T19:27:30;3.30;;;3.00;;
60582;SDS011;46415;47.536;19.066;2022-09-03T19:35:02;4.15;;;3.22;;
60582;SDS011;46415;47.536;19.066;2022-09-03T19:38:48;3.30;;;3.00;;
60582;SDS011;46415;47.536;19.066;2022-09-03T19:53:33;4.15;;;3.33;;
60582;SDS011;46415;47.536;19.066;2022-09-03T19:56:55;4.55;;;3.20;;
60582;SDS011;46415;47.536;19.066;2022-09-03T20:00:18;4.35;;;3.47;;
60582;SDS011;46415;47.536;19.066;2022-09-03T20:03:40;4.03;;;3.10;;
60582;SDS011;46415;47.536;19.066;2022-09-03T20:07:04;4.05;;;3.15;;
60582;SDS011;46415;47.536;19.066;2022-09-03T20:10:29;3.83;;;3.30;;
60582;SDS011;46415;47.536;19.066;2022-09-03T20:13:37;3.55;;;3.08;;
60582;SDS011;46415;47.536;19.066;2022-09-03T20:20:31;4.28;;;3.33;;
60582;SDS011;46415;47.536;19.066;2022-09-03T20:23:53;3.65;;;3.30;;
60582;SDS011;46415;47.536;19.066;2022-09-03T20:30:24;4.70;;;3.62;;
60582;SDS011;46415;47.536;19.066;2022-09-03T20:33:36;7.00;;;3.60;;
60582;SDS011;46415;47.536;19.066;2022-09-03T20:47:23;3.95;;;3.15;;
60582;SDS011;46415;47.536;19.066;2022-09-03T20:54:01;4.32;;;3.92;;
60582;SDS011;46415;47.536;19.066;2022-09-03T20:57:26;3.83;;;3.47;;
60582;SDS011;46415;47.536;19.066;2022-09-03T21:01:21;4.18;;;3.70;;
60582;SDS011;46415;47.536;19.066;2022-09-03T21:07:55;5.70;;;4.43;;
60582;SDS011;46415;47.536;19.066;2022-09-03T21:21:36;6.47;;;4.25;;
60582;SDS011;46415;47.536;19.066;2022-09-03T21:25:00;5.22;;;4.18;;
60582;SDS011;46415;47.536;19.066;2022-09-03T21:28:14;4.55;;;4.07;;
60582;SDS011;46415;47.536;19.066;2022-09-03T21:31:23;4.70;;;4.15;;
60582;SDS011;46415;47.536;19.066;2022-09-03T21:34:40;3.90;;;3.60;;
60582;SDS011;46415;47.536;19.066;2022-09-03T21:38:01;4.32;;;3.92;;
60582;SDS011;46415;47.536;19.066;2022-09-03T21:41:27;3.97;;;3.58;;
60582;SDS011;46415;47.536;19.066;2022-09-03T21:47:42;4.03;;;3.62;;
60582;SDS011;46415;47.536;19.066;2022-09-03T21:54:00;4.28;;;3.70;;
60582;SDS011;46415;47.536;19.066;2022-09-03T22:00:33;4.78;;;4.15;;
60582;SDS011;46415;47.536;19.066;2022-09-03T22:03:36;4.47;;;3.70;;
60582;SDS011;46415;47.536;19.066;2022-09-03T22:10:12;4.50;;;4.10;;
60582;SDS011;46415;47.536;19.066;2022-09-03T22:13:29;6.53;;;4.07;;
60582;SDS011;46415;47.536;19.066;2022-09-03T22:16:40;4.07;;;3.62;;
60582;SDS011;46415;47.536;19.066;2022-09-03T22:20:02;4.30;;;3.90;;
60582;SDS011;46415;47.536;19.066;2022-09-03T22:23:10;3.97;;;3.65;;
60582;SDS011;46415;47.536;19.066;2022-09-03T22:29:45;4.72;;;4.20;;
60582;SDS011;46415;47.536;19.066;2022-09-03T22:32:56;4.18;;;3.78;;
60582;SDS011;46415;47.536;19.066;2022-09-03T22:42:43;4.95;;;4.47;;
60582;SDS011;46415;47.536;19.066;2022-09-03T22:52:51;6.32;;;4.43;;
60582;SDS011;46415;47.536;19.066;2022-09-03T22:56:19;4.47;;;4.05;;
60582;SDS011;46415;47.536;19.066;2022-09-03T22:59:30;5.37;;;4.15;;
60582;SDS011;46415;47.536;19.066;2022-09-03T23:02:40;4.85;;;4.35;;
60582;SDS011;46415;47.536;19.066;2022-09-03T23:06:05;5.35;;;4.32;;
60582;SDS011;46415;47.536;19.066;2022-09-03T23:09:14;5.60;;;4.28;;
60582;SDS011;46415;47.536;19.066;2022-09-03T23:12:36;4.78;;;4.35;;
60582;SDS011;46415;47.536;19.066;2022-09-03T23:15:43;4.60;;;4.03;;
60582;SDS011;46415;47.536;19.066;2022-09-03T23:18:50;5.87;;;4.07;;
60582;SDS011;46415;47.536;19.066;2022-09-03T23:21:59;5.00;;;4.50;;
60582;SDS011;46415;47.536;19.066;2022-09-03T23:25:09;4.80;;;4.30;;
60582;SDS011;46415;47.536;19.066;2022-09-03T23:31:30;4.95;;;4.47;;
60582;SDS011;46415;47.536;19.066;2022-09-03T23:34:33;4.40;;;4.00;;
60582;SDS011;46415;47.536;19.066;2022-09-03T23:40:44;3.75;;;3.45;;
60582;SDS011;46415;47.536;19.066;2022-09-03T23:43:57;4.62;;;4.10;;
60582;SDS011;46415;47.536;19.066;2022-09-03T23:47:12;4.57;;;4.18;;
60582;SDS011;46415;47.536;19.066;2022-09-03T23:54:02;4.82;;;3.15;;
60582;SDS011;46415;47.536;19.066;2022-09-03T23:57:21;5.43;;;3.95;;
